sensor_id;sensor_type;location;lat;lon;timestamp;P1;durP1;ratioP1;P2;durP2;ratioP2
20042;SDS011;10182;52.896;6.496;2023-06-24T00:00:01;10.60;;;9.60;;
20042;SDS011;10182;52.896;6.496;2023-06-24T00:05:07;13.27;;;10.63;;
20042;SDS011;10182;52.896;6.496;2023-06-24T00:10:09;12.63;;;11.33;;
20042;SDS011;10182;52.896;6.496;2023-06-24T00:15:13;12.33;;;11.03;;
20042;SDS011;10182;52.896;6.496;2023-06-24T00:20:15;11.43;;;10.17;;
20042;SDS011;10182;52.896;6.496;2023-06-24T00:25:18;12.60;;;10.73;;
20042;SDS011;10182;52.896;6.496;2023-06-24T00:30:21;11.73;;;10.47;;
20042;SDS011;10182;52.896;6.496;2023-06-24T00:35:23;11.07;;;9.73;;
20042;SDS011;10182;52.896;6.496;2023-06-24T00:40:24;14.70;;;11.07;;
20042;SDS011;10182;52.896;6.496;2023-06-24T00:45:27;16.10;;;10.77;;
20042;SDS011;10182;52.896;6.496;2023-06-24T00:50:31;12.13;;;10.93;;
20042;SDS011;10182;52.896;6.496;2023-06-24T00:55:32;11.97;;;10.37;;
20042;SDS011;10182;52.896;6.496;2023-06-24T01:00:35;13.00;;;11.60;;
20042;SDS011;10182;52.896;6.496;2023-06-24T01:05:37;13.20;;;10.67;;
20042;SDS011;10182;52.896;6.496;2023-06-24T01:10:41;12.90;;;11.53;;
20042;SDS011;10182;52.896;6.496;2023-06-24T01:15:44;14.40;;;12.33;;
20042;SDS011;10182;52.896;6.496;2023-06-24T01:20:48;13.57;;;12.17;;
20042;SDS011;10182;52.896;6.496;2023-06-24T01:26:03;13.57;;;12.17;;
20042;SDS011;10182;52.896;6.496;2023-06-24T01:31:32;11.57;;;10.40;;
20042;SDS011;10182;52.896;6.496;2023-06-24T01:36:38;13.10;;;11.00;;
20042;SDS011;10182;52.896;6.496;2023-06-24T01:41:45;11.27;;;10.13;;
20042;SDS011;10182;52.896;6.496;2023-06-24T01:46:54;12.73;;;10.40;;
20042;SDS011;10182;52.896;6.496;2023-06-24T01:51:58;11.27;;;10.20;;
20042;SDS011;10182;52.896;6.496;2023-06-24T01:57:01;12.57;;;11.37;;
20042;SDS011;10182;52.896;6.496;2023-06-24T02:02:08;13.80;;;12.40;;
20042;SDS011;10182;52.896;6.496;2023-06-24T02:07:11;12.97;;;11.67;;
20042;SDS011;10182;52.896;6.496;2023-06-24T02:12:15;14.33;;;12.93;;
20042;SDS011;10182;52.896;6.496;2023-06-24T02:17:18;13.97;;;11.33;;
20042;SDS011;10182;52.896;6.496;2023-06-24T02:22:21;15.50;;;13.73;;
20042;SDS011;10182;52.896;6.496;2023-06-24T02:27:25;19.30;;;13.57;;
20042;SDS011;10182;52.896;6.496;2023-06-24T02:32:28;16.83;;;14.00;;
20042;SDS011;10182;52.896;6.496;2023-06-24T02:37:30;16.20;;;13.80;;
20042;SDS011;10182;52.896;6.496;2023-06-24T02:42:31;15.50;;;13.90;;
20042;SDS011;10182;52.896;6.496;2023-06-24T02:47:34;16.07;;;14.30;;
20042;SDS011;10182;52.896;6.496;2023-06-24T02:52:37;15.17;;;13.60;;
20042;SDS011;10182;52.896;6.496;2023-06-24T02:57:39;16.77;;;14.53;;
20042;SDS011;10182;52.896;6.496;2023-06-24T03:02:43;16.83;;;14.67;;
20042;SDS011;10182;52.896;6.496;2023-06-24T03:07:46;16.17;;;14.37;;
20042;SDS011;10182;52.896;6.496;2023-06-24T03:12:48;15.73;;;14.03;;
20042;SDS011;10182;52.896;6.496;2023-06-24T03:17:51;18.90;;;14.80;;
20042;SDS011;10182;52.896;6.496;2023-06-24T03:22:53;17.90;;;14.47;;
20042;SDS011;10182;52.896;6.496;2023-06-24T03:27:56;15.10;;;13.33;;
20042;SDS011;10182;52.896;6.496;2023-06-24T03:32:59;13.60;;;12.30;;
20042;SDS011;10182;52.896;6.496;2023-06-24T03:38:01;15.60;;;13.23;;
20042;SDS011;10182;52.896;6.496;2023-06-24T03:43:02;15.73;;;13.33;;
20042;SDS011;10182;52.896;6.496;2023-06-24T03:48:05;16.33;;;14.63;;
20042;SDS011;10182;52.896;6.496;2023-06-24T03:53:07;18.73;;;14.97;;
20042;SDS011;10182;52.896;6.496;2023-06-24T03:58:09;16.70;;;14.93;;
20042;SDS011;10182;52.896;6.496;2023-06-24T04:03:12;16.07;;;14.47;;
20042;SDS011;10182;52.896;6.496;2023-06-24T04:08:13;16.77;;;14.90;;
20042;SDS011;10182;52.896;6.496;2023-06-24T04:13:15;15.80;;;14.17;;
20042;SDS011;10182;52.896;6.496;2023-06-24T04:18:19;18.73;;;15.40;;
20042;SDS011;10182;52.896;6.496;2023-06-24T04:23:21;17.60;;;15.70;;
20042;SDS011;10182;52.896;6.496;2023-06-24T04:28:23;16.70;;;14.77;;
20042;SDS011;10182;52.896;6.496;2023-06-24T04:33:26;17.20;;;15.40;;
20042;SDS011;10182;52.896;6.496;2023-06-24T04:38:27;17.50;;;15.37;;
20042;SDS011;10182;52.896;6.496;2023-06-24T04:43:29;16.00;;;14.30;;
20042;SDS011;10182;52.896;6.496;2023-06-24T04:48:32;17.00;;;14.87;;
20042;SDS011;10182;52.896;6.496;2023-06-24T04:53:34;16.93;;;14.00;;
20042;SDS011;10182;52.896;6.496;2023-06-24T04:58:35;17.77;;;12.43;;
20042;SDS011;10182;52.896;6.496;2023-06-24T05:03:38;16.87;;;14.97;;
20042;SDS011;10182;52.896;6.496;2023-06-24T05:08:40;17.90;;;16.00;;
20042;SDS011;10182;52.896;6.496;2023-06-24T05:13:42;18.03;;;16.20;;
20042;SDS011;10182;52.896;6.496;2023-06-24T05:18:45;20.57;;;17.50;;
20042;SDS011;10182;52.896;6.496;2023-06-24T05:23:46;16.17;;;14.67;;
20042;SDS011;10182;52.896;6.496;2023-06-24T05:28:48;18.47;;;16.00;;
20042;SDS011;10182;52.896;6.496;2023-06-24T05:33:51;19.67;;;17.57;;
20042;SDS011;10182;52.896;6.496;2023-06-24T05:38:53;17.03;;;15.03;;
20042;SDS011;10182;52.896;6.496;2023-06-24T05:44:00;16.63;;;14.97;;
20042;SDS011;10182;52.896;6.496;2023-06-24T05:49:04;17.43;;;14.10;;
20042;SDS011;10182;52.896;6.496;2023-06-24T05:54:06;15.60;;;13.87;;
20042;SDS011;10182;52.896;6.496;2023-06-24T05:59:07;16.00;;;14.40;;
20042;SDS011;10182;52.896;6.496;2023-06-24T06:04:10;16.53;;;14.77;;
20042;SDS011;10182;52.896;6.496;2023-06-24T06:09:12;15.57;;;13.97;;
20042;SDS011;10182;52.896;6.496;2023-06-24T06:14:14;15.23;;;13.53;;
20042;SDS011;10182;52.896;6.496;2023-06-24T06:19:17;16.03;;;14.37;;
20042;SDS011;10182;52.896;6.496;2023-06-24T06:24:18;15.57;;;14.07;;
20042;SDS011;10182;52.896;6.496;2023-06-24T06:29:20;13.83;;;12.43;;
20042;SDS011;10182;52.896;6.496;2023-06-24T06:34:23;15.37;;;13.83;;
20042;SDS011;10182;52.896;6.496;2023-06-24T06:39:25;15.57;;;13.97;;
20042;SDS011;10182;52.896;6.496;2023-06-24T06:44:27;15.63;;;13.10;;
20042;SDS011;10182;52.896;6.496;2023-06-24T06:49:30;14.83;;;13.37;;
20042;SDS011;10182;52.896;6.496;2023-06-24T06:54:31;14.50;;;13.00;;
20042;SDS011;10182;52.896;6.496;2023-06-24T06:59:33;15.00;;;13.50;;
20042;SDS011;10182;52.896;6.496;2023-06-24T07:04:36;15.83;;;14.10;;
20042;SDS011;10182;52.896;6.496;2023-06-24T07:09:38;17.27;;;13.87;;
20042;SDS011;10182;52.896;6.496;2023-06-24T07:14:39;13.87;;;12.47;;
20042;SDS011;10182;52.896;6.496;2023-06-24T07:19:42;16.37;;;12.27;;
20042;SDS011;10182;52.896;6.496;2023-06-24T07:24:44;13.60;;;12.20;;
20042;SDS011;10182;52.896;6.496;2023-06-24T07:29:46;10.33;;;9.33;;
20042;SDS011;10182;52.896;6.496;2023-06-24T07:34:49;10.13;;;8.30;;
20042;SDS011;10182;52.896;6.496;2023-06-24T07:39:50;10.33;;;7.80;;
20042;SDS011;10182;52.896;6.496;2023-06-24T07:44:52;9.53;;;7.83;;
20042;SDS011;10182;52.896;6.496;2023-06-24T07:49:55;8.93;;;8.00;;
20042;SDS011;10182;52.896;6.496;2023-06-24T07:54:57;8.23;;;7.40;;
20042;SDS011;10182;52.896;6.496;2023-06-24T07:59:59;6.73;;;6.13;;
20042;SDS011;10182;52.896;6.496;2023-06-24T08:05:02;7.27;;;6.60;;
20042;SDS011;10182;52.896;6.496;2023-06-24T08:10:04;8.53;;;6.83;;
20042;SDS011;10182;52.896;6.496;2023-06-24T08:15:07;7.40;;;6.40;;
20042;SDS011;10182;52.896;6.496;2023-06-24T08:20:11;7.33;;;6.63;;
20042;SDS011;10182;52.896;6.496;2023-06-24T08:25:13;5.93;;;5.37;;
20042;SDS011;10182;52.896;6.496;2023-06-24T08:30:15;5.83;;;5.33;;
20042;SDS011;10182;52.896;6.496;2023-06-24T08:35:18;6.33;;;5.73;;
20042;SDS011;10182;52.896;6.496;2023-06-24T08:40:19;6.37;;;4.60;;
20042;SDS011;10182;52.896;6.496;2023-06-24T08:45:21;3.63;;;2.63;;
20042;SDS011;10182;52.896;6.496;2023-06-24T08:50:24;4.20;;;2.23;;
20042;SDS011;10182;52.896;6.496;2023-06-24T08:55:32;3.43;;;2.67;;
20042;SDS011;10182;52.896;6.496;2023-06-24T09:00:40;3.70;;;2.67;;
20042;SDS011;10182;52.896;6.496;2023-06-24T09:05:44;4.67;;;3.20;;
20042;SDS011;10182;52.896;6.496;2023-06-24T09:10:46;3.33;;;2.57;;
20042;SDS011;10182;52.896;6.496;2023-06-24T09:15:54;4.10;;;3.30;;
20042;SDS011;10182;52.896;6.496;2023-06-24T09:21:00;3.63;;;2.87;;
20042;SDS011;10182;52.896;6.496;2023-06-24T09:26:03;3.97;;;3.47;;
20042;SDS011;10182;52.896;6.496;2023-06-24T09:31:05;3.77;;;2.90;;
20042;SDS011;10182;52.896;6.496;2023-06-24T09:36:12;4.07;;;2.77;;
20042;SDS011;10182;52.896;6.496;2023-06-24T09:41:14;5.40;;;3.40;;
20042;SDS011;10182;52.896;6.496;2023-06-24T09:46:16;5.00;;;3.27;;
20042;SDS011;10182;52.896;6.496;2023-06-24T09:51:20;5.13;;;3.77;;
20042;SDS011;10182;52.896;6.496;2023-06-24T09:56:23;5.47;;;3.50;;
20042;SDS011;10182;52.896;6.496;2023-06-24T10:01:26;3.93;;;3.40;;
20042;SDS011;10182;52.896;6.496;2023-06-24T10:06:29;4.60;;;3.93;;
20042;SDS011;10182;52.896;6.496;2023-06-24T10:11:31;4.07;;;3.63;;
20042;SDS011;10182;52.896;6.496;2023-06-24T10:16:33;5.50;;;4.30;;
20042;SDS011;10182;52.896;6.496;2023-06-24T10:21:46;5.97;;;4.13;;
20042;SDS011;10182;52.896;6.496;2023-06-24T10:26:49;6.13;;;4.43;;
20042;SDS011;10182;52.896;6.496;2023-06-24T10:31:53;4.50;;;4.10;;
20042;SDS011;10182;52.896;6.496;2023-06-24T10:36:58;4.40;;;3.93;;
20042;SDS011;10182;52.896;6.496;2023-06-24T10:47:35;6.17;;;3.90;;
20042;SDS011;10182;52.896;6.496;2023-06-24T10:52:40;5.50;;;4.07;;
20042;SDS011;10182;52.896;6.496;2023-06-24T10:57:43;4.90;;;4.00;;
20042;SDS011;10182;52.896;6.496;2023-06-24T11:02:45;4.30;;;3.90;;
20042;SDS011;10182;52.896;6.496;2023-06-24T11:07:48;3.63;;;3.30;;
20042;SDS011;10182;52.896;6.496;2023-06-24T11:12:50;6.73;;;3.83;;
20042;SDS011;10182;52.896;6.496;2023-06-24T11:17:52;3.87;;;3.40;;
20042;SDS011;10182;52.896;6.496;2023-06-24T11:22:55;4.57;;;3.37;;
20042;SDS011;10182;52.896;6.496;2023-06-24T11:27:57;3.93;;;3.63;;
20042;SDS011;10182;52.896;6.496;2023-06-24T11:32:58;4.03;;;3.63;;
20042;SDS011;10182;52.896;6.496;2023-06-24T11:38:01;6.10;;;2.93;;
20042;SDS011;10182;52.896;6.496;2023-06-24T11:43:03;4.83;;;4.30;;
20042;SDS011;10182;52.896;6.496;2023-06-24T11:48:05;3.93;;;3.13;;
20042;SDS011;10182;52.896;6.496;2023-06-24T11:53:09;4.70;;;4.17;;
20042;SDS011;10182;52.896;6.496;2023-06-24T11:58:18;4.20;;;3.80;;
20042;SDS011;10182;52.896;6.496;2023-06-24T12:03:21;5.00;;;4.50;;
20042;SDS011;10182;52.896;6.496;2023-06-24T12:08:25;5.37;;;4.60;;
20042;SDS011;10182;52.896;6.496;2023-06-24T12:13:27;5.03;;;4.17;;
20042;SDS011;10182;52.896;6.496;2023-06-24T12:18:28;4.03;;;3.73;;
20042;SDS011;10182;52.896;6.496;2023-06-24T12:23:31;4.63;;;4.00;;
20042;SDS011;10182;52.896;6.496;2023-06-24T12:28:33;5.80;;;4.70;;
20042;SDS011;10182;52.896;6.496;2023-06-24T12:33:35;4.43;;;3.93;;
20042;SDS011;10182;52.896;6.496;2023-06-24T12:38:38;7.20;;;4.50;;
20042;SDS011;10182;52.896;6.496;2023-06-24T12:43:40;4.30;;;3.67;;
20042;SDS011;10182;52.896;6.496;2023-06-24T12:48:42;5.30;;;4.33;;
20042;SDS011;10182;52.896;6.496;2023-06-24T12:53:45;4.53;;;3.90;;
20042;SDS011;10182;52.896;6.496;2023-06-24T12:58:47;7.20;;;4.60;;
20042;SDS011;10182;52.896;6.496;2023-06-24T13:03:49;4.60;;;4.17;;
20042;SDS011;10182;52.896;6.496;2023-06-24T13:08:52;6.37;;;4.47;;
20042;SDS011;10182;52.896;6.496;2023-06-24T13:13:54;3.90;;;3.50;;
20042;SDS011;10182;52.896;6.496;2023-06-24T13:18:56;4.33;;;3.83;;
20042;SDS011;10182;52.896;6.496;2023-06-24T13:23:59;4.83;;;3.67;;
20042;SDS011;10182;52.896;6.496;2023-06-24T13:29:00;6.07;;;3.50;;
20042;SDS011;10182;52.896;6.496;2023-06-24T13:34:02;5.97;;;4.00;;
20042;SDS011;10182;52.896;6.496;2023-06-24T13:39:06;4.23;;;3.80;;
20042;SDS011;10182;52.896;6.496;2023-06-24T13:44:11;3.50;;;3.20;;
20042;SDS011;10182;52.896;6.496;2023-06-24T13:49:13;4.80;;;3.57;;
20042;SDS011;10182;52.896;6.496;2023-06-24T13:54:16;5.90;;;3.63;;
20042;SDS011;10182;52.896;6.496;2023-06-24T13:59:18;4.33;;;3.93;;
20042;SDS011;10182;52.896;6.496;2023-06-24T14:04:19;3.90;;;3.60;;
20042;SDS011;10182;52.896;6.496;2023-06-24T14:09:23;4.63;;;3.73;;
20042;SDS011;10182;52.896;6.496;2023-06-24T14:14:24;4.10;;;3.70;;
20042;SDS011;10182;52.896;6.496;2023-06-24T14:19:26;4.70;;;3.90;;
20042;SDS011;10182;52.896;6.496;2023-06-24T14:24:29;4.53;;;3.43;;
20042;SDS011;10182;52.896;6.496;2023-06-24T14:29:31;4.53;;;4.13;;
20042;SDS011;10182;52.896;6.496;2023-06-24T14:34:33;4.07;;;3.60;;
20042;SDS011;10182;52.896;6.496;2023-06-24T14:39:36;4.17;;;3.77;;
20042;SDS011;10182;52.896;6.496;2023-06-24T14:44:37;4.40;;;4.00;;
20042;SDS011;10182;52.896;6.496;2023-06-24T14:49:39;5.97;;;3.47;;
20042;SDS011;10182;52.896;6.496;2023-06-24T14:54:42;4.40;;;3.93;;
20042;SDS011;10182;52.896;6.496;2023-06-24T14:59:44;5.30;;;4.80;;
20042;SDS011;10182;52.896;6.496;2023-06-24T15:04:45;4.73;;;4.00;;
20042;SDS011;10182;52.896;6.496;2023-06-24T15:09:48;5.17;;;4.70;;
20042;SDS011;10182;52.896;6.496;2023-06-24T15:14:50;6.33;;;4.30;;
20042;SDS011;10182;52.896;6.496;2023-06-24T15:19:52;6.60;;;4.30;;
20042;SDS011;10182;52.896;6.496;2023-06-24T15:24:55;4.97;;;4.47;;
20042;SDS011;10182;52.896;6.496;2023-06-24T15:29:56;7.30;;;4.63;;
20042;SDS011;10182;52.896;6.496;2023-06-24T15:35:00;6.03;;;4.73;;
20042;SDS011;10182;52.896;6.496;2023-06-24T15:40:05;5.23;;;4.40;;
20042;SDS011;10182;52.896;6.496;2023-06-24T15:45:08;5.47;;;4.67;;
20042;SDS011;10182;52.896;6.496;2023-06-24T15:50:10;7.03;;;4.33;;
20042;SDS011;10182;52.896;6.496;2023-06-24T15:55:13;4.70;;;4.30;;
20042;SDS011;10182;52.896;6.496;2023-06-24T16:00:15;6.17;;;4.40;;
20042;SDS011;10182;52.896;6.496;2023-06-24T16:05:17;5.93;;;4.00;;
20042;SDS011;10182;52.896;6.496;2023-06-24T16:10:20;6.57;;;5.13;;
20042;SDS011;10182;52.896;6.496;2023-06-24T16:15:21;5.20;;;4.70;;
20042;SDS011;10182;52.896;6.496;2023-06-24T16:20:23;6.63;;;4.10;;
20042;SDS011;10182;52.896;6.496;2023-06-24T16:25:26;7.97;;;4.53;;
20042;SDS011;10182;52.896;6.496;2023-06-24T16:30:28;5.87;;;4.40;;
20042;SDS011;10182;52.896;6.496;2023-06-24T16:35:30;4.60;;;4.20;;
20042;SDS011;10182;52.896;6.496;2023-06-24T16:40:33;5.80;;;4.27;;
20042;SDS011;10182;52.896;6.496;2023-06-24T16:45:34;5.67;;;4.50;;
20042;SDS011;10182;52.896;6.496;2023-06-24T16:50:36;6.07;;;4.30;;
20042;SDS011;10182;52.896;6.496;2023-06-24T16:55:39;5.47;;;4.20;;
20042;SDS011;10182;52.896;6.496;2023-06-24T17:00:41;5.43;;;4.13;;
20042;SDS011;10182;52.896;6.496;2023-06-24T17:05:42;4.47;;;3.93;;
20042;SDS011;10182;52.896;6.496;2023-06-24T17:10:45;4.90;;;3.40;;
20042;SDS011;10182;52.896;6.496;2023-06-24T17:15:47;4.17;;;3.73;;
20042;SDS011;10182;52.896;6.496;2023-06-24T17:20:49;8.30;;;3.70;;
20042;SDS011;10182;52.896;6.496;2023-06-24T17:25:52;4.63;;;3.77;;
20042;SDS011;10182;52.896;6.496;2023-06-24T17:30:53;6.33;;;4.43;;
20042;SDS011;10182;52.896;6.496;2023-06-24T17:35:55;9.10;;;4.50;;
20042;SDS011;10182;52.896;6.496;2023-06-24T17:40:58;6.53;;;5.20;;
20042;SDS011;10182;52.896;6.496;2023-06-24T17:46:00;7.97;;;4.73;;
20042;SDS011;10182;52.896;6.496;2023-06-24T17:51:01;5.27;;;4.77;;
20042;SDS011;10182;52.896;6.496;2023-06-24T17:56:04;6.80;;;4.77;;
20042;SDS011;10182;52.896;6.496;2023-06-24T18:01:06;6.50;;;5.07;;
20042;SDS011;10182;52.896;6.496;2023-06-24T18:06:14;5.80;;;5.17;;
20042;SDS011;10182;52.896;6.496;2023-06-24T18:11:17;5.77;;;5.17;;
20042;SDS011;10182;52.896;6.496;2023-06-24T18:16:19;5.90;;;5.00;;
20042;SDS011;10182;52.896;6.496;2023-06-24T18:21:20;7.87;;;4.90;;
20042;SDS011;10182;52.896;6.496;2023-06-24T18:26:23;5.87;;;5.17;;
20042;SDS011;10182;52.896;6.496;2023-06-24T18:31:26;7.00;;;5.60;;
20042;SDS011;10182;52.896;6.496;2023-06-24T18:36:27;5.13;;;4.70;;
20042;SDS011;10182;52.896;6.496;2023-06-24T18:41:31;6.80;;;5.00;;
20042;SDS011;10182;52.896;6.496;2023-06-24T18:46:32;6.53;;;4.77;;
20042;SDS011;10182;52.896;6.496;2023-06-24T18:51:34;8.53;;;5.43;;
20042;SDS011;10182;52.896;6.496;2023-06-24T18:56:37;5.50;;;4.57;;
20042;SDS011;10182;52.896;6.496;2023-06-24T19:01:39;5.47;;;4.80;;
20042;SDS011;10182;52.896;6.496;2023-06-24T19:06:42;5.93;;;5.33;;
20042;SDS011;10182;52.896;6.496;2023-06-24T19:11:45;5.23;;;4.73;;
20042;SDS011;10182;52.896;6.496;2023-06-24T19:16:47;5.50;;;4.83;;
20042;SDS011;10182;52.896;6.496;2023-06-24T19:21:49;6.43;;;4.40;;
20042;SDS011;10182;52.896;6.496;2023-06-24T19:26:52;5.83;;;4.70;;
20042;SDS011;10182;52.896;6.496;2023-06-24T19:31:53;5.17;;;4.77;;
20042;SDS011;10182;52.896;6.496;2023-06-24T19:36:55;5.50;;;4.83;;
20042;SDS011;10182;52.896;6.496;2023-06-24T19:41:58;5.03;;;4.53;;
20042;SDS011;10182;52.896;6.496;2023-06-24T19:47:00;4.97;;;4.10;;
20042;SDS011;10182;52.896;6.496;2023-06-24T19:52:02;6.37;;;5.43;;
20042;SDS011;10182;52.896;6.496;2023-06-24T19:57:06;4.73;;;4.33;;
20042;SDS011;10182;52.896;6.496;2023-06-24T20:02:07;6.03;;;5.00;;
20042;SDS011;10182;52.896;6.496;2023-06-24T20:07:09;7.93;;;5.17;;
20042;SDS011;10182;52.896;6.496;2023-06-24T20:12:12;7.33;;;5.00;;
20042;SDS011;10182;52.896;6.496;2023-06-24T20:17:14;5.20;;;4.53;;
20042;SDS011;10182;52.896;6.496;2023-06-24T20:22:16;5.90;;;5.17;;
20042;SDS011;10182;52.896;6.496;2023-06-24T20:27:19;5.47;;;4.63;;
20042;SDS011;10182;52.896;6.496;2023-06-24T20:32:20;6.50;;;5.70;;
20042;SDS011;10182;52.896;6.496;2023-06-24T20:37:22;5.47;;;4.60;;
20042;SDS011;10182;52.896;6.496;2023-06-24T20:42:25;6.23;;;5.23;;
20042;SDS011;10182;52.896;6.496;2023-06-24T20:47:27;8.13;;;5.40;;
20042;SDS011;10182;52.896;6.496;2023-06-24T20:52:28;5.70;;;5.17;;
20042;SDS011;10182;52.896;6.496;2023-06-24T20:57:31;6.00;;;4.90;;
20042;SDS011;10182;52.896;6.496;2023-06-24T21:02:33;8.50;;;5.53;;
20042;SDS011;10182;52.896;6.496;2023-06-24T21:07:35;6.53;;;5.47;;
20042;SDS011;10182;52.896;6.496;2023-06-24T21:12:38;7.43;;;5.60;;
20042;SDS011;10182;52.896;6.496;2023-06-24T21:17:39;8.70;;;5.80;;
20042;SDS011;10182;52.896;6.496;2023-06-24T21:22:41;7.80;;;5.70;;
20042;SDS011;10182;52.896;6.496;2023-06-24T21:27:44;6.93;;;6.23;;
20042;SDS011;10182;52.896;6.496;2023-06-24T21:32:46;7.17;;;5.97;;
20042;SDS011;10182;52.896;6.496;2023-06-24T21:37:47;7.20;;;6.53;;
20042;SDS011;10182;52.896;6.496;2023-06-24T21:42:50;6.70;;;5.83;;
20042;SDS011;10182;52.896;6.496;2023-06-24T21:47:52;9.50;;;6.50;;
20042;SDS011;10182;52.896;6.496;2023-06-24T21:52:54;7.57;;;6.63;;
20042;SDS011;10182;52.896;6.496;2023-06-24T21:57:57;8.30;;;7.43;;
20042;SDS011;10182;52.896;6.496;2023-06-24T22:02:58;7.73;;;7.00;;
20042;SDS011;10182;52.896;6.496;2023-06-24T22:08:00;8.30;;;7.43;;
20042;SDS011;10182;52.896;6.496;2023-06-24T22:13:03;10.23;;;8.00;;
20042;SDS011;10182;52.896;6.496;2023-06-24T22:18:05;9.40;;;8.27;;
20042;SDS011;10182;52.896;6.496;2023-06-24T22:23:07;9.77;;;8.63;;
20042;SDS011;10182;52.896;6.496;2023-06-24T22:28:10;9.33;;;8.43;;
20042;SDS011;10182;52.896;6.496;2023-06-24T22:33:11;9.13;;;8.13;;
20042;SDS011;10182;52.896;6.496;2023-06-24T22:38:13;11.07;;;8.53;;
20042;SDS011;10182;52.896;6.496;2023-06-24T22:43:16;11.23;;;8.73;;
20042;SDS011;10182;52.896;6.496;2023-06-24T22:48:18;12.03;;;8.90;;
20042;SDS011;10182;52.896;6.496;2023-06-24T22:53:19;9.70;;;8.80;;
20042;SDS011;10182;52.896;6.496;2023-06-24T22:58:22;10.50;;;8.67;;
20042;SDS011;10182;52.896;6.496;2023-06-24T23:03:24;12.23;;;10.10;;
20042;SDS011;10182;52.896;6.496;2023-06-24T23:08:26;13.50;;;9.40;;
20042;SDS011;10182;52.896;6.496;2023-06-24T23:13:29;12.17;;;10.53;;
20042;SDS011;10182;52.896;6.496;2023-06-24T23:18:32;11.47;;;10.23;;
20042;SDS011;10182;52.896;6.496;2023-06-24T23:23:35;13.07;;;11.67;;
20042;SDS011;10182;52.896;6.496;2023-06-24T23:28:38;12.87;;;11.00;;
20042;SDS011;10182;52.896;6.496;2023-06-24T23:33:45;12.50;;;11.23;;
20042;SDS011;10182;52.896;6.496;2023-06-24T23:38:47;13.13;;;11.70;;
20042;SDS011;10182;52.896;6.496;2023-06-24T23:43:50;14.43;;;12.10;;
20042;SDS011;10182;52.896;6.496;2023-06-24T23:48:52;14.40;;;12.90;;
20042;SDS011;10182;52.896;6.496;2023-06-24T23:53:55;13.70;;;12.07;;
20042;SDS011;10182;52.896;6.496;2023-06-24T23:58:58;15.13;;;12.00;;
